Time;durP1;ratioP1;P1;durP2;ratioP2;P2;SDS_P1;SDS_P2;PMS_P1;PMS_P2;Temp;Humidity;BMP_temperature;BMP_pressure;BME280_temperature;BME280_humidity;BME280_pressure;Samples;Min_cycle;Max_cycle;Signal;HPM_P1;HPM_P2
2024/01/17 00:00:55;;;;;;;0.30;0.30;;;;;;;1.18;51.18;101321.41;4915641;29;20387;-84
2024/01/17 00:03:23;;;;;;;0.80;0.80;;;;;;;1.18;50.80;101324.03;4913777;29;20507;-84
2024/01/17 00:05:49;;;;;;;0.65;0.52;;;;;;;0.99;51.44;101316.44;4915450;29;20421;-84
2024/01/17 00:08:17;;;;;;;0.82;0.82;;;;;;;0.68;52.34;101313.91;4913279;29;20393;-85
2024/01/17 00:10:46;;;;;;;0.50;0.50;;;;;;;0.68;52.28;101319.13;4912614;29;20431;-85
2024/01/17 00:13:18;;;;;;;1.25;1.20;;;;;;;0.72;52.34;101317.16;4913874;29;20451;-84
2024/01/17 00:15:47;;;;;;;0.40;0.40;;;;;;;0.77;52.11;101330.78;4903093;23;20432;-84
2024/01/17 00:18:13;;;;;;;0.20;0.20;;;;;;;0.89;51.95;101322.22;4875369;29;20404;-83
2024/01/17 00:20:42;;;;;;;2.30;0.90;;;;;;;0.89;51.67;101317.00;4876295;29;20471;-85
2024/01/17 00:23:07;;;;;;;0.30;0.30;;;;;;;0.81;51.73;101331.44;4876110;29;20407;-84
2024/01/17 00:25:35;;;;;;;0.50;0.50;;;;;;;0.78;51.46;101318.59;4877921;29;20772;-84
2024/01/17 00:28:03;;;;;;;0.15;0.15;;;;;;;0.84;51.74;101315.63;4877644;29;20837;-84
2024/01/17 00:30:29;;;;;;;0.13;0.13;;;;;;;0.80;51.16;101314.97;4877263;29;20400;-84
2024/01/17 00:33:03;;;;;;;0.20;0.20;;;;;;;0.86;51.27;101311.13;4877342;29;20455;-85
2024/01/17 00:35:28;;;;;;;0.40;0.35;;;;;;;0.89;51.02;101305.75;4876314;29;20783;-85
2024/01/17 00:37:56;;;;;;;0.10;0.10;;;;;;;0.97;51.03;101311.31;4876325;29;20407;-85
2024/01/17 00:40:22;;;;;;;0.10;0.10;;;;;;;1.02;51.01;101316.28;4877688;29;20518;-85
2024/01/17 00:42:48;;;;;;;0.80;0.80;;;;;;;0.96;50.82;101312.28;4877098;29;20400;-85
2024/01/17 00:45:19;;;;;;;0.20;0.20;;;;;;;0.86;51.08;101305.91;4876157;29;20427;-84
2024/01/17 00:47:54;;;;;;;0.10;0.10;;;;;;;0.84;50.91;101300.78;4876025;29;20392;-85
2024/01/17 00:50:19;;;;;;;0.90;0.70;;;;;;;0.84;51.08;101302.56;4874681;29;20505;-85
2024/01/17 00:52:48;;;;;;;0.20;0.20;;;;;;;0.78;50.98;101324.66;4874771;29;20410;-85
2024/01/17 00:55:16;;;;;;;0.10;0.10;;;;;;;0.69;51.07;101327.81;4876172;29;20399;-84
2024/01/17 00:57:44;;;;;;;0.10;0.10;;;;;;;0.72;51.26;101335.44;4875982;29;20930;-84
2024/01/17 01:00:13;;;;;;;0.10;0.10;;;;;;;0.72;51.33;101332.84;4875569;29;20407;-84
2024/01/17 01:02:42;;;;;;;0.30;0.30;;;;;;;0.68;51.43;101320.91;4875044;29;20419;-85
2024/01/17 01:05:08;;;;;;;1.20;0.70;;;;;;;0.66;51.35;101307.13;4876936;29;20428;-86
2024/01/17 01:07:35;;;;;;;0.73;0.50;;;;;;;0.63;51.71;101309.91;4878382;29;20408;-86
2024/01/17 01:10:03;;;;;;;0.35;0.35;;;;;;;0.50;51.89;101313.22;4887549;29;20400;-84
2024/01/17 01:12:31;;;;;;;0.17;0.17;;;;;;;0.45;52.31;101317.91;4886552;29;20937;-85
2024/01/17 01:14:59;;;;;;;0.50;0.50;;;;;;;0.30;52.55;101324.81;4876567;29;20396;-85
2024/01/17 01:17:27;;;;;;;0.50;0.50;;;;;;;0.26;52.67;101315.50;4878188;29;20479;-84
2024/01/17 01:19:55;;;;;;;1.00;0.80;;;;;;;0.28;52.76;101313.63;4876504;29;20408;-86
2024/01/17 01:22:21;;;;;;;0.20;0.20;;;;;;;0.24;52.50;101309.53;4878061;29;20419;-87
2024/01/17 01:24:49;;;;;;;0.20;0.20;;;;;;;0.32;52.72;101312.53;4878392;29;20396;-86
2024/01/17 01:27:15;;;;;;;0.50;0.50;;;;;;;0.13;53.03;101312.75;4878871;29;20431;-85
2024/01/17 01:29:41;;;;;;;0.67;0.67;;;;;;;0.15;53.32;101315.28;4884686;29;20463;-83
2024/01/17 01:32:07;;;;;;;0.10;0.10;;;;;;;0.15;53.32;101315.28;4886107;29;20410;-84
2024/01/17 01:34:33;;;;;;;0.20;0.20;;;;;;;0.05;53.38;101311.50;4876877;29;20404;-84
2024/01/17 01:37:01;;;;;;;0.10;0.10;;;;;;;0.13;53.38;101307.56;4878279;29;20423;-83
2024/01/17 01:39:27;;;;;;;0.70;0.70;;;;;;;0.32;52.97;101322.13;4875717;29;20435;-84
2024/01/17 01:41:52;;;;;;;0.25;0.20;;;;;;;0.34;52.49;101308.09;4875287;29;20438;-84
2024/01/17 01:44:21;;;;;;;0.20;0.20;;;;;;;0.12;53.09;101300.66;4874935;29;20404;-84
2024/01/17 01:46:48;;;;;;;1.00;0.90;;;;;;;0.06;53.45;101310.59;4886472;29;20475;-84
2024/01/17 01:49:15;;;;;;;0.50;0.50;;;;;;;-0.27;55.12;101325.44;4897272;29;21126;-85
2024/01/17 01:51:44;;;;;;;0.70;0.70;;;;;;;-0.12;54.50;101320.28;4896674;29;20384;-85
2024/01/17 01:54:12;;;;;;;0.10;0.10;;;;;;;-0.09;54.90;101307.94;4897271;29;20427;-84
2024/01/17 01:56:39;;;;;;;1.55;0.95;;;;;;;0.10;54.32;101291.25;4890530;29;20990;-84
2024/01/17 01:59:06;;;;;;;0.10;0.10;;;;;;;0.33;53.71;101285.53;4876224;29;20418;-84
2024/01/17 02:01:33;;;;;;;0.25;0.25;;;;;;;0.45;53.29;101275.31;4875803;29;20404;-86
2024/01/17 02:04:02;;;;;;;0.70;0.70;;;;;;;0.48;53.00;101273.34;4876005;29;20859;-85
2024/01/17 02:06:35;;;;;;;0.30;0.30;;;;;;;0.62;52.88;101279.53;4875397;29;20795;-85
2024/01/17 02:09:03;;;;;;;0.20;0.20;;;;;;;0.64;52.76;101275.88;4876162;29;20475;-85
2024/01/17 02:11:29;;;;;;;0.35;0.35;;;;;;;0.61;53.09;101275.25;4876386;29;20484;-85
2024/01/17 02:13:55;;;;;;;0.60;0.60;;;;;;;0.53;53.26;101283.53;4877355;29;20406;-85
2024/01/17 02:16:24;;;;;;;0.10;0.10;;;;;;;0.50;53.37;101268.06;4882615;29;20434;-84
2024/01/17 02:18:50;;;;;;;0.25;0.25;;;;;;;0.56;53.15;101265.94;4890763;29;20768;-85
2024/01/17 02:21:20;;;;;;;0.28;0.28;;;;;;;0.68;53.04;101274.78;4878451;29;20396;-85
2024/01/17 02:23:52;;;;;;;1.10;0.80;;;;;;;0.52;53.17;101279.22;4878584;29;20414;-85
2024/01/17 02:26:19;;;;;;;0.30;0.30;;;;;;;0.35;54.22;101283.66;4879627;29;20455;-85
2024/01/17 02:28:45;;;;;;;0.50;0.50;;;;;;;0.48;53.87;101296.00;4878576;29;20400;-85
2024/01/17 02:31:15;;;;;;;0.80;0.80;;;;;;;0.43;53.95;101293.66;4878632;29;20403;-85
2024/01/17 02:33:44;;;;;;;0.50;0.40;;;;;;;0.48;54.08;101289.00;4878356;29;20977;-87
2024/01/17 02:36:09;;;;;;;0.50;0.50;;;;;;;0.52;54.18;101297.50;4878637;29;20907;-86
2024/01/17 02:38:38;;;;;;;0.50;0.50;;;;;;;0.28;55.03;101290.19;4876576;29;20396;-85
2024/01/17 02:41:06;;;;;;;0.52;0.52;;;;;;;0.30;54.61;101283.09;4876420;29;20450;-84
2024/01/17 02:43:32;;;;;;;0.80;0.80;;;;;;;0.42;54.74;101280.72;4877379;29;20792;-84
2024/01/17 02:45:58;;;;;;;0.20;0.20;;;;;;;0.68;54.09;101282.59;4875924;29;20416;-84
2024/01/17 02:48:26;;;;;;;1.60;1.50;;;;;;;0.91;53.88;101283.00;4876439;29;20404;-85
2024/01/17 02:50:52;;;;;;;0.20;0.20;;;;;;;1.01;53.33;101283.25;4876833;29;20768;-85
2024/01/17 02:53:22;;;;;;;0.73;0.73;;;;;;;0.82;53.63;101294.81;4878086;29;20915;-85
2024/01/17 02:55:48;;;;;;;1.10;1.10;;;;;;;0.69;54.10;101296.50;4877913;29;20443;-85
2024/01/17 02:58:18;;;;;;;2.30;2.20;;;;;;;0.44;55.19;101310.16;4878874;29;20438;-85
2024/01/17 03:00:45;;;;;;;0.70;0.70;;;;;;;0.47;54.96;101291.69;4877638;29;20407;-86
2024/01/17 03:03:13;;;;;;;0.50;0.50;;;;;;;0.55;55.22;101297.31;4879093;29;20431;-85
2024/01/17 03:05:45;;;;;;;2.28;2.17;;;;;;;0.48;55.68;101288.16;4877460;29;20926;-85
2024/01/17 03:08:11;;;;;;;0.10;0.10;;;;;;;0.57;55.45;101285.84;4877569;29;20400;-85
2024/01/17 03:10:40;;;;;;;0.43;0.43;;;;;;;0.81;54.82;101284.47;4879144;29;20411;-86
2024/01/17 03:13:08;;;;;;;0.20;0.20;;;;;;;0.93;54.08;101289.78;4894754;29;20424;-84
2024/01/17 03:15:34;;;;;;;0.25;0.25;;;;;;;0.91;54.36;101288.22;4882357;29;20447;-87
2024/01/17 03:18:00;;;;;;;0.90;0.60;;;;;;;0.86;54.33;101283.25;4878429;29;20784;-86
2024/01/17 03:20:26;;;;;;;0.10;0.10;;;;;;;0.88;54.24;101283.16;4879434;29;20399;-86
2024/01/17 03:22:55;;;;;;;0.28;0.28;;;;;;;0.95;54.23;101268.81;4878781;29;20407;-85
2024/01/17 03:25:23;;;;;;;0.47;0.47;;;;;;;1.01;54.08;101276.28;4878442;29;20801;-85
2024/01/17 03:27:48;;;;;;;0.10;0.10;;;;;;;1.12;53.83;101273.84;4879888;29;20404;-84
2024/01/17 03:30:19;;;;;;;0.30;0.30;;;;;;;1.11;53.63;101269.53;4879870;29;20400;-86
2024/01/17 03:32:44;;;;;;;0.10;0.10;;;;;;;1.23;53.30;101282.78;4894935;29;20432;-84
2024/01/17 03:35:13;;;;;;;0.33;0.33;;;;;;;1.09;53.33;101281.03;4881162;29;20396;-87
2024/01/17 03:37:39;;;;;;;0.50;0.50;;;;;;;1.04;53.48;101272.63;4875599;29;20400;-87
2024/01/17 03:40:05;;;;;;;0.30;0.30;;;;;;;1.12;53.63;101273.00;4875878;29;20476;-87
2024/01/17 03:42:33;;;;;;;0.50;0.50;;;;;;;1.11;53.64;101281.78;4877404;29;20418;-87
2024/01/17 03:44:59;;;;;;;0.10;0.10;;;;;;;1.17;53.44;101302.28;4876803;29;20480;-88
2024/01/17 03:47:27;;;;;;;0.30;0.30;;;;;;;0.99;53.59;101288.59;4876984;29;20408;-87
2024/01/17 03:49:55;;;;;;;0.25;0.25;;;;;;;0.92;54.13;101295.97;4877810;29;20436;-86
2024/01/17 03:52:23;;;;;;;1.40;0.63;;;;;;;1.02;53.77;101311.06;4878952;29;20495;-86
2024/01/17 03:54:49;;;;;;;0.20;0.20;;;;;;;0.93;53.97;101302.84;4877220;29;20403;-86
2024/01/17 03:57:17;;;;;;;0.15;0.15;;;;;;;1.11;53.75;101308.72;4877342;29;20399;-86
2024/01/17 03:59:48;;;;;;;0.53;0.53;;;;;;;1.02;53.84;101317.09;4877114;29;20465;-86
2024/01/17 04:02:16;;;;;;;0.30;0.30;;;;;;;0.83;54.44;101321.75;4878528;29;20435;-86
2024/01/17 04:04:42;;;;;;;0.32;0.32;;;;;;;0.90;54.76;101312.63;4876959;29;20396;-85
2024/01/17 04:07:10;;;;;;;0.20;0.20;;;;;;;0.99;54.27;101314.72;4877246;29;20404;-92
2024/01/17 04:09:35;;;;;;;2.70;1.80;;;;;;;1.00;54.21;101323.38;4877289;29;20486;-86
2024/01/17 04:12:01;;;;;;;0.20;0.20;;;;;;;0.98;54.59;101323.44;4876982;29;20483;-87
2024/01/17 04:14:30;;;;;;;0.75;0.43;;;;;;;1.02;54.18;101340.59;4877529;29;20426;-87
2024/01/17 04:16:58;;;;;;;0.47;0.47;;;;;;;1.05;54.16;101322.16;4876712;29;20412;-87
2024/01/17 04:19:24;;;;;;;1.50;1.25;;;;;;;1.14;53.87;101307.69;4877541;29;20771;-86
2024/01/17 04:21:56;;;;;;;0.50;0.50;;;;;;;1.00;54.12;101315.53;4876159;29;21210;-84
2024/01/17 04:24:23;;;;;;;0.52;0.52;;;;;;;0.95;54.69;101305.34;4876046;29;20403;-84
2024/01/17 04:26:54;;;;;;;0.88;0.70;;;;;;;1.04;54.25;101299.56;4878005;29;20415;-85
2024/01/17 04:29:19;;;;;;;0.40;0.40;;;;;;;1.27;54.20;101302.56;4874816;29;20795;-84
2024/01/17 04:31:45;;;;;;;0.50;0.50;;;;;;;1.31;53.55;101309.25;4874330;29;20595;-84
2024/01/17 04:34:11;;;;;;;1.35;1.15;;;;;;;1.13;54.29;101322.53;4874166;29;20434;-86
2024/01/17 04:36:37;;;;;;;0.70;0.50;;;;;;;1.05;54.22;101301.25;4873821;29;20627;-84
2024/01/17 04:39:04;;;;;;;2.20;0.80;;;;;;;1.03;54.32;101304.91;4874165;29;20526;-85
2024/01/17 04:41:30;;;;;;;0.30;0.30;;;;;;;1.14;54.25;101305.91;4875763;29;20856;-85
2024/01/17 04:43:58;;;;;;;0.30;0.30;;;;;;;1.14;54.38;101294.63;4875164;29;20406;-85
2024/01/17 04:46:24;;;;;;;0.17;0.17;;;;;;;1.16;53.81;101303.22;4876923;29;20507;-86
2024/01/17 04:48:50;;;;;;;0.45;0.45;;;;;;;1.27;53.77;101297.34;4877752;29;20427;-86
2024/01/17 04:51:16;;;;;;;6.22;1.02;;;;;;;1.33;53.68;101294.31;4876168;29;20856;-85
2024/01/17 04:53:44;;;;;;;2.30;1.40;;;;;;;1.09;54.17;101299.31;4876224;29;20505;-86
2024/01/17 04:56:13;;;;;;;0.40;0.40;;;;;;;1.00;54.44;101302.47;4877999;29;20406;-86
2024/01/17 04:58:39;;;;;;;0.80;0.80;;;;;;;1.08;54.57;101303.69;4876042;29;20419;-84
2024/01/17 05:01:11;;;;;;;0.60;0.60;;;;;;;1.11;54.41;101302.66;4875425;29;20422;-87
2024/01/17 05:03:39;;;;;;;0.67;0.67;;;;;;;1.09;54.22;101305.34;4865596;29;20438;-85
2024/01/17 05:06:05;;;;;;;1.50;1.25;;;;;;;0.97;54.35;101302.66;4876058;29;20459;-85
2024/01/17 05:08:34;;;;;;;0.30;0.30;;;;;;;1.01;54.74;101306.75;4876131;29;20436;-87
2024/01/17 05:11:00;;;;;;;0.25;0.25;;;;;;;1.12;54.51;101312.19;4876064;29;20888;-85
2024/01/17 05:13:28;;;;;;;0.50;0.50;;;;;;;1.30;54.14;101318.03;4881032;29;20392;-85
2024/01/17 05:15:57;;;;;;;0.70;0.70;;;;;;;1.22;53.86;101313.28;4891026;29;20519;-86
2024/01/17 05:18:22;;;;;;;0.30;0.30;;;;;;;1.30;54.29;101320.66;4893482;29;20435;-87
2024/01/17 05:20:48;;;;;;;1.00;0.90;;;;;;;1.38;53.98;101326.22;4877345;29;20963;-86
2024/01/17 05:23:13;;;;;;;0.50;0.50;;;;;;;1.27;54.05;101318.22;4875842;29;20499;-87
2024/01/17 05:25:39;;;;;;;0.60;0.60;;;;;;;1.37;54.20;101326.31;4876560;29;20423;-87
2024/01/17 05:28:06;;;;;;;0.60;0.60;;;;;;;1.31;54.23;101323.19;4875180;29;20423;-87
2024/01/17 05:30:32;;;;;;;0.38;0.38;;;;;;;1.18;54.34;101324.03;4877613;29;20400;-85
2024/01/17 05:32:58;;;;;;;0.60;0.60;;;;;;;1.15;54.51;101330.25;4893848;29;20482;-89
2024/01/17 05:35:28;;;;;;;0.20;0.20;;;;;;;1.11;54.84;101336.59;4895970;29;20407;-91
2024/01/17 05:37:54;;;;;;;0.60;0.60;;;;;;;1.06;54.94;101341.25;4879698;29;20411;-90
2024/01/17 05:40:25;;;;;;;0.50;0.50;;;;;;;0.93;55.45;101362.03;4880412;29;20412;-89
2024/01/17 05:42:50;;;;;;;0.70;0.70;;;;;;;1.11;55.25;101347.88;4895882;29;20991;-91
2024/01/17 05:45:16;;;;;;;0.30;0.30;;;;;;;1.12;55.01;101330.47;4878484;29;20424;-88
2024/01/17 05:47:45;;;;;;;1.65;1.40;;;;;;;1.31;54.30;101348.44;4877768;29;20404;-89
2024/01/17 05:50:11;;;;;;;0.35;0.35;;;;;;;1.40;54.05;101363.53;4896415;29;20874;-88
2024/01/17 05:52:45;;;;;;;1.15;1.05;;;;;;;1.47;54.17;101370.06;4881352;29;20519;-88
2024/01/17 05:55:20;;;;;;;0.20;0.20;;;;;;;1.55;53.79;101353.94;4880999;29;21138;-88
2024/01/17 05:57:50;;;;;;;0.30;0.30;;;;;;;1.72;54.02;101364.16;4880589;29;20415;-88
2024/01/17 06:00:18;;;;;;;0.75;0.75;;;;;;;1.71;53.43;101366.84;4880396;29;20946;-89
2024/01/17 06:02:44;;;;;;;0.52;0.52;;;;;;;1.52;54.07;101380.25;4880299;29;20431;-89
2024/01/17 06:05:16;;;;;;;0.45;0.45;;;;;;;1.55;54.44;101377.44;4880548;29;20416;-88
2024/01/17 06:07:44;;;;;;;0.80;0.65;;;;;;;1.72;53.88;101381.63;4882222;29;20407;-88
2024/01/17 06:10:13;;;;;;;0.68;0.68;;;;;;;1.72;53.95;101376.38;4882971;29;20491;-90
2024/01/17 06:12:42;;;;;;;0.50;0.50;;;;;;;1.76;53.90;101377.03;4880582;29;20468;-88
2024/01/17 06:15:09;;;;;;;0.85;0.85;;;;;;;1.84;53.65;101377.41;4881116;29;20510;-87
2024/01/17 06:17:35;;;;;;;0.40;0.40;;;;;;;1.91;53.49;101384.75;4882237;29;20459;-87
2024/01/17 06:20:01;;;;;;;1.00;1.00;;;;;;;1.87;53.47;101379.81;4883854;29;20400;-87
2024/01/17 06:22:27;;;;;;;0.90;0.83;;;;;;;1.64;54.16;101369.03;4883900;29;20431;-87
2024/01/17 06:24:55;;;;;;;0.70;0.70;;;;;;;1.78;54.23;101383.81;4882906;29;20887;-88
2024/01/17 06:27:22;;;;;;;0.30;0.30;;;;;;;1.79;53.90;101392.53;4884491;29;20399;-88
2024/01/17 06:29:51;;;;;;;0.35;0.35;;;;;;;1.82;53.95;101393.19;4882150;29;20404;-87
2024/01/17 06:32:17;;;;;;;1.00;0.70;;;;;;;1.92;53.75;101383.78;4882341;29;20404;-88
2024/01/17 06:34:44;;;;;;;0.60;0.60;;;;;;;2.01;53.58;101364.06;4879982;29;20918;-88
2024/01/17 06:37:15;;;;;;;0.60;0.60;;;;;;;2.00;53.84;101364.16;4880714;29;20403;-88
2024/01/17 06:39:41;;;;;;;0.38;0.38;;;;;;;2.10;53.52;101370.50;4880563;29;20446;-88
2024/01/17 06:42:06;;;;;;;1.10;1.10;;;;;;;2.17;53.53;101358.69;4885827;29;20399;-88
2024/01/17 06:44:32;;;;;;;1.05;0.95;;;;;;;2.30;53.13;101366.56;4886928;29;20396;-88
2024/01/17 06:46:58;;;;;;;0.60;0.60;;;;;;;2.35;53.10;101354.03;4881541;29;20510;-88
2024/01/17 06:49:25;;;;;;;0.50;0.50;;;;;;;2.41;53.19;101339.72;4882462;29;20796;-88
2024/01/17 06:52:10;;;;;;;0.60;0.60;;;;;;;2.49;52.97;101340.88;4883038;29;20924;-88
2024/01/17 06:54:35;;;;;;;1.00;1.00;;;;;;;2.36;53.07;101337.41;4881104;29;20422;-87
2024/01/17 06:57:09;;;;;;;1.20;0.80;;;;;;;2.31;53.11;101347.34;4880050;29;20908;-87
2024/01/17 06:59:34;;;;;;;0.68;0.68;;;;;;;2.32;53.28;101351.63;4880443;29;20407;-87
2024/01/17 07:02:05;;;;;;;0.20;0.20;;;;;;;2.49;53.18;101356.59;4880470;29;20406;-88
2024/01/17 07:04:31;;;;;;;0.80;0.80;;;;;;;2.61;52.75;101359.31;4883890;29;20471;-89
2024/01/17 07:06:57;;;;;;;0.90;0.90;;;;;;;2.45;52.85;101352.50;4884144;29;20430;-90
2024/01/17 07:09:23;;;;;;;0.60;0.60;;;;;;;2.25;53.63;101371.28;4885249;29;20400;-90
2024/01/17 07:11:51;;;;;;;0.83;0.83;;;;;;;2.19;53.75;101362.03;4892487;29;20404;-88
2024/01/17 07:14:19;;;;;;;0.70;0.50;;;;;;;2.16;54.01;101358.78;4900022;29;20415;-85
2024/01/17 07:16:45;;;;;;;0.57;0.57;;;;;;;2.09;53.99;101361.81;4895422;29;20479;-87
2024/01/17 07:19:13;;;;;;;0.43;0.43;;;;;;;2.17;53.77;101365.72;4883031;29;20464;-87
2024/01/17 07:21:41;;;;;;;0.82;0.82;;;;;;;2.16;53.78;101356.19;4895601;29;20402;-86
2024/01/17 07:24:06;;;;;;;0.95;0.95;;;;;;;2.18;53.78;101356.91;4895564;29;20389;-86
2024/01/17 07:26:33;;;;;;;1.02;0.93;;;;;;;2.29;53.70;101363.13;4896004;29;20439;-85
2024/01/17 07:29:02;;;;;;;0.43;0.43;;;;;;;2.54;53.38;101361.53;4898340;29;20400;-86
2024/01/17 07:31:29;;;;;;;0.40;0.40;;;;;;;2.65;52.97;101358.19;4893777;29;20411;-87
2024/01/17 07:33:55;;;;;;;0.20;0.20;;;;;;;2.74;53.21;101362.81;4897435;29;20408;-85
2024/01/17 07:36:23;;;;;;;0.50;0.30;;;;;;;2.85;52.72;101362.91;4888790;29;20780;-87
2024/01/17 07:38:53;;;;;;;1.08;1.00;;;;;;;3.00;53.10;101360.19;4888062;29;20431;-89
2024/01/17 07:41:22;;;;;;;0.73;0.73;;;;;;;3.03;52.53;101358.22;4886508;29;20407;-87
2024/01/17 07:43:57;;;;;;;0.90;0.90;;;;;;;2.96;52.69;101364.81;4885563;29;20412;-88
2024/01/17 07:46:22;;;;;;;0.38;0.38;;;;;;;2.99;52.86;101368.97;4888482;29;20427;-87
2024/01/17 07:48:48;;;;;;;0.33;0.33;;;;;;;3.13;52.86;101354.94;4880478;29;20474;-88
2024/01/17 07:51:14;;;;;;;0.73;0.73;;;;;;;3.29;52.78;101367.84;4882363;29;20404;-87
2024/01/17 07:53:42;;;;;;;0.60;0.60;;;;;;;3.30;52.57;101359.88;4881336;29;20503;-87
2024/01/17 07:56:09;;;;;;;0.20;0.20;;;;;;;3.40;52.68;101365.28;4880152;29;20402;-87
2024/01/17 07:58:38;;;;;;;0.63;0.63;;;;;;;3.41;52.55;101366.97;4880070;29;20392;-87
2024/01/17 08:01:07;;;;;;;0.80;0.80;;;;;;;3.44;52.54;101372.03;4882502;29;20472;-85
2024/01/17 08:03:32;;;;;;;0.20;0.20;;;;;;;3.58;52.54;101384.13;4884495;29;20428;-86
2024/01/17 08:06:06;;;;;;;0.60;0.60;;;;;;;3.57;52.14;101383.31;4881911;29;20423;-85
2024/01/17 08:08:35;;;;;;;0.70;0.70;;;;;;;3.56;52.40;101386.03;4879468;29;20410;-86
2024/01/17 08:11:04;;;;;;;1.08;0.98;;;;;;;3.61;52.18;101379.50;4877327;29;20916;-86
2024/01/17 08:13:33;;;;;;;0.68;0.68;;;;;;;3.67;51.92;101378.25;4878539;29;20987;-86
2024/01/17 08:15:59;;;;;;;1.50;1.40;;;;;;;3.63;51.95;101380.25;4879754;29;20443;-88
2024/01/17 08:18:25;;;;;;;0.67;0.67;;;;;;;3.58;52.43;101382.38;4879567;29;20396;-86
2024/01/17 08:20:53;;;;;;;2.50;1.13;;;;;;;3.57;52.41;101374.63;4881503;29;20776;-86
2024/01/17 08:23:21;;;;;;;1.57;1.10;;;;;;;3.58;52.21;101386.75;4881079;29;20545;-88
2024/01/17 08:25:47;;;;;;;1.40;1.30;;;;;;;3.52;52.53;101377.53;4879242;29;20419;-87
2024/01/17 08:28:13;;;;;;;2.08;1.98;;;;;;;3.56;52.53;101371.13;4881428;29;20769;-87
2024/01/17 08:30:42;;;;;;;2.33;0.95;;;;;;;3.58;52.58;101385.00;4900669;29;20376;-87
2024/01/17 08:33:07;;;;;;;1.20;1.20;;;;;;;3.57;52.32;101370.19;4899499;29;20451;-86
2024/01/17 08:35:33;;;;;;;2.20;1.60;;;;;;;3.66;52.48;101381.81;4888822;29;20411;-87
2024/01/17 08:38:03;;;;;;;1.00;0.90;;;;;;;3.62;52.45;101381.22;4896528;29;20476;-87
2024/01/17 08:40:31;;;;;;;0.63;0.63;;;;;;;3.43;52.57;101378.19;4898343;29;20407;-88
2024/01/17 08:42:57;;;;;;;1.40;1.10;;;;;;;3.52;52.24;101384.59;4896398;29;20412;-88
2024/01/17 08:45:23;;;;;;;1.20;1.13;;;;;;;3.55;52.64;101384.38;4881254;29;20519;-87
2024/01/17 08:47:51;;;;;;;0.60;0.45;;;;;;;3.49;52.51;101393.47;4863736;29;20408;-87
2024/01/17 08:50:20;;;;;;;1.70;1.60;;;;;;;3.24;52.86;101391.72;4879424;29;20492;-87
2024/01/17 08:52:46;;;;;;;1.00;1.00;;;;;;;3.33;53.20;101400.72;4879542;29;20391;-86
2024/01/17 08:55:12;;;;;;;0.68;0.68;;;;;;;3.56;52.75;101399.13;4877735;29;20392;-86
2024/01/17 08:57:38;;;;;;;0.70;0.70;;;;;;;3.65;52.83;101393.25;4878223;29;20475;-88
2024/01/17 09:00:06;;;;;;;1.77;1.67;;;;;;;3.69;52.86;101394.72;4880857;29;20400;-89
2024/01/17 09:02:34;;;;;;;0.88;0.85;;;;;;;3.71;52.39;101389.34;4883667;29;20962;-88
2024/01/17 09:05:06;;;;;;;0.57;0.57;;;;;;;3.78;52.62;101378.34;4879987;29;20400;-88
2024/01/17 09:07:32;;;;;;;0.45;0.45;;;;;;;3.73;52.69;101383.06;4879040;29;20788;-88
2024/01/17 09:09:57;;;;;;;1.17;1.13;;;;;;;3.54;52.62;101372.19;4875950;29;20412;-86
2024/01/17 09:12:28;;;;;;;0.57;0.57;;;;;;;3.58;53.30;101371.03;4879036;29;20392;-85
2024/01/17 09:14:54;;;;;;;0.50;0.50;;;;;;;3.77;52.78;101367.94;4886069;29;20396;-84
2024/01/17 09:17:20;;;;;;;0.60;0.60;;;;;;;3.86;52.89;101367.28;4893190;29;20404;-87
2024/01/17 09:19:50;;;;;;;0.35;0.35;;;;;;;4.04;52.64;101354.63;4879562;29;20404;-86
2024/01/17 09:22:19;;;;;;;1.92;1.35;;;;;;;4.02;52.64;101344.25;4878032;29;20400;-85
2024/01/17 09:24:45;;;;;;;1.20;1.10;;;;;;;4.02;52.74;101344.25;4877145;29;20473;-87
2024/01/17 09:27:13;;;;;;;0.80;0.80;;;;;;;4.12;52.75;101344.41;4882592;29;20419;-86
2024/01/17 09:29:45;;;;;;;1.47;1.13;;;;;;;4.18;52.59;101337.88;4882378;29;20411;-86
2024/01/17 09:32:17;;;;;;;0.55;0.55;;;;;;;4.15;52.37;101341.56;4884130;29;20408;-85
2024/01/17 09:34:47;;;;;;;1.77;1.58;;;;;;;4.32;52.39;101334.22;4899451;29;20469;-84
2024/01/17 09:37:23;;;;;;;0.25;0.25;;;;;;;4.51;52.47;101323.19;4892159;29;20422;-89
2024/01/17 09:39:49;;;;;;;0.27;0.27;;;;;;;4.69;51.79;101324.41;4875665;29;20450;-87
2024/01/17 09:42:15;;;;;;;0.30;0.30;;;;;;;4.74;51.66;101321.47;4895844;29;20415;-86
2024/01/17 09:44:44;;;;;;;3.47;3.17;;;;;;;4.68;51.78;101328.03;4879506;29;20408;-87
2024/01/17 09:47:15;;;;;;;0.80;0.80;;;;;;;4.68;51.68;101325.41;4883559;29;20424;-86
2024/01/17 09:49:41;;;;;;;0.77;0.73;;;;;;;4.70;51.86;101315.59;4881198;29;20919;-88
2024/01/17 09:52:11;;;;;;;0.80;0.80;;;;;;;4.79;51.78;101306.19;4881764;29;20411;-87
2024/01/17 09:54:42;;;;;;;1.25;1.15;;;;;;;4.60;51.69;101297.06;4883649;29;20457;-86
2024/01/17 09:57:22;;;;;;;1.73;1.63;;;;;;;4.60;52.40;101299.69;4885136;29;20395;-86
2024/01/17 09:59:57;;;;;;;0.50;0.50;;;;;;;6.03;53.99;101300.78;4881487;29;20463;-84
2024/01/17 10:02:24;;;;;;;0.28;0.28;;;;;;;7.58;58.66;101297.28;4882247;29;20958;-83
2024/01/17 10:04:50;;;;;;;0.85;0.55;;;;;;;8.45;59.21;101290.34;4879640;29;20411;-83
2024/01/17 10:07:18;;;;;;;1.70;1.60;;;;;;;8.91;59.58;101285.22;4879300;29;20415;-83
2024/01/17 10:09:45;;;;;;;0.68;0.68;;;;;;;9.44;57.52;101273.16;4879640;29;20396;-83
2024/01/17 10:12:12;;;;;;;1.50;1.15;;;;;;;8.66;55.17;101282.25;4889668;29;20432;-85
2024/01/17 10:14:41;;;;;;;1.15;0.63;;;;;;;7.52;54.44;101281.97;4893581;29;20431;-86
2024/01/17 10:17:10;;;;;;;1.65;1.17;;;;;;;6.88;53.71;101284.00;4894326;29;20448;-86
2024/01/17 10:19:40;;;;;;;0.82;0.43;;;;;;;6.68;53.35;101280.44;4895842;29;20419;-84
2024/01/17 10:22:10;;;;;;;1.48;0.60;;;;;;;6.48;52.36;101281.28;4898244;29;20499;-86
2024/01/17 10:24:37;;;;;;;1.13;0.85;;;;;;;6.22;51.57;101271.13;4899187;29;20432;-86
2024/01/17 10:27:10;;;;;;;1.35;0.77;;;;;;;6.06;51.37;101282.09;4880506;29;20423;-86
2024/01/17 10:29:43;;;;;;;3.70;0.60;;;;;;;6.10;50.97;101288.78;4881055;29;20491;-86
2024/01/17 10:32:13;;;;;;;0.68;0.60;;;;;;;5.83;50.65;101277.84;4879257;29;20400;-87
2024/01/17 10:34:42;;;;;;;1.95;1.48;;;;;;;5.58;50.20;101268.47;4878592;29;20396;-85
2024/01/17 10:37:11;;;;;;;0.50;0.50;;;;;;;5.34;50.25;101256.34;4880189;29;20400;-85
2024/01/17 10:39:40;;;;;;;0.60;0.60;;;;;;;5.35;50.31;101261.50;4878287;29;20428;-85
2024/01/17 10:42:17;;;;;;;1.40;1.00;;;;;;;5.29;49.70;101261.97;4879932;29;20396;-87
2024/01/17 10:44:45;;;;;;;1.30;1.00;;;;;;;5.28;49.85;101249.78;4879020;29;20916;-87
2024/01/17 10:47:16;;;;;;;1.17;0.73;;;;;;;5.33;49.59;101250.25;4880855;29;20495;-86
2024/01/17 10:49:44;;;;;;;0.95;0.95;;;;;;;5.08;49.63;101234.78;4880143;29;20391;-88
2024/01/17 10:52:15;;;;;;;0.68;0.68;;;;;;;4.92;49.68;101240.41;4882221;29;20943;-86
2024/01/17 10:54:50;;;;;;;0.55;0.50;;;;;;;5.04;50.29;101243.84;4881820;29;20495;-86
2024/01/17 10:57:18;;;;;;;1.50;1.10;;;;;;;5.08;49.59;101250.53;4881806;29;20407;-86
2024/01/17 11:00:01;;;;;;;0.50;0.50;;;;;;;5.08;49.51;101232.97;4880873;29;20412;-86
2024/01/17 11:02:27;;;;;;;0.50;0.50;;;;;;;5.17;49.14;101228.78;4882003;29;20573;-87
2024/01/17 11:04:58;;;;;;;0.50;0.50;;;;;;;5.15;48.91;101231.53;4884114;29;20863;-87
2024/01/17 11:07:25;;;;;;;0.30;0.30;;;;;;;5.22;49.00;101220.53;4898938;29;20487;-86
2024/01/17 11:09:53;;;;;;;1.27;1.20;;;;;;;5.18;49.21;101222.56;4880327;29;20433;-85
2024/01/17 11:12:21;;;;;;;0.60;0.60;;;;;;;5.33;48.62;101212.59;4882380;29;20408;-85
2024/01/17 11:14:51;;;;;;;0.20;0.20;;;;;;;5.28;48.58;101202.47;4885667;29;20403;-86
2024/01/17 11:17:22;;;;;;;1.65;1.55;;;;;;;5.18;48.71;101196.28;4894022;29;20456;-85
2024/01/17 11:19:54;;;;;;;1.15;0.73;;;;;;;5.27;48.56;101189.44;4886134;29;20452;-88
2024/01/17 11:22:21;;;;;;;1.80;1.70;;;;;;;5.47;48.76;101193.91;4886724;29;20431;-88
2024/01/17 11:25:14;;;;;;;3.50;2.20;;;;;;;5.50;48.55;101182.34;4892687;29;20429;-86
2024/01/17 11:27:50;;;;;;;1.37;0.80;;;;;;;5.33;48.53;101184.53;4882065;29;20463;-87
2024/01/17 11:30:37;;;;;;;0.98;0.40;;;;;;;5.26;48.18;101200.94;4884310;29;20403;-86
2024/01/17 11:33:11;;;;;;;1.58;0.90;;;;;;;5.35;48.29;101192.31;4880132;29;20490;-85
2024/01/17 11:35:48;;;;;;;1.17;0.70;;;;;;;5.61;48.32;101184.09;4890254;29;20411;-87
2024/01/17 11:38:32;;;;;;;1.25;0.90;;;;;;;5.61;48.17;101163.03;4886341;29;20430;-87